Terminal Aerodrome Forecast
Issued by NWS Rapid City, SD

Home | Current Version | Previous Version | Text Only | Print | Product List | Glossary Off
Versions: 1 2 3 4 5 6 7 8 9 10 11 12 13 14 15 16

000
FTUS43 KUNR 242300
TAFRAP
TAF
KRAP 242320Z 2500/2524 33030G45KT P6SM SCT050
     FM250100 33024G34KT P6SM SKC
     FM250300 33017KT P6SM SKC=

USA.gov is the U.S. government's official web portal to all federal, state and local government web resources and services.